Time;durP1;ratioP1;P1;durP2;ratioP2;P2;SDS_P1;SDS_P2;PMS_P1;PMS_P2;Temp;Humidity;BMP_temperature;BMP_pressure;BME280_temperature;BME280_humidity;BME280_pressure;Samples;Min_cycle;Max_cycle;Signal;HPM_P1;HPM_P2
2021/07/27 00:01:14;;;;;;;7.43;4.88;;;;;;;18.12;80.53;100225.41;20819448;28;20140;-70
2021/07/27 00:11:16;;;;;;;8.25;5.10;;;;;;;18.06;81.22;100230.13;20819063;28;20046;-70
2021/07/27 00:21:18;;;;;;;13.27;5.40;;;;;;;17.93;82.31;100230.75;20818854;28;20049;-71
2021/07/27 00:31:20;;;;;;;10.55;5.15;;;;;;;17.89;82.88;100233.63;20818046;28;20520;-70
2021/07/27 00:41:22;;;;;;;9.50;5.70;;;;;;;17.82;83.16;100242.78;20818520;28;20160;-70
2021/07/27 00:51:24;;;;;;;11.57;5.43;;;;;;;17.62;83.39;100246.34;20830555;28;20107;-71
2021/07/27 01:01:25;;;;;;;8.55;5.70;;;;;;;17.55;83.79;100253.72;20846282;28;20057;-70
2021/07/27 01:11:28;;;;;;;12.13;5.80;;;;;;;17.46;83.31;100245.38;20815364;28;20521;-71
2021/07/27 01:42:12;;;;;;;10.63;6.55;;;;;;;17.40;83.81;100230.63;20830475;28;20041;-71
2021/07/27 01:52:15;;;;;;;9.65;5.72;;;;;;;17.40;83.46;100239.44;20829942;28;20045;-70
2021/07/27 02:02:16;;;;;;;12.70;6.47;;;;;;;17.44;83.95;100254.25;20828527;28;20103;-71
2021/07/27 02:12:20;;;;;;;10.85;5.82;;;;;;;17.33;84.70;100239.78;20827018;28;20046;-70
2021/07/27 02:22:22;;;;;;;9.07;6.32;;;;;;;17.33;84.14;100237.13;20827431;28;20050;-71
2021/07/27 02:32:23;;;;;;;9.90;5.60;;;;;;;17.27;84.56;100242.72;20826094;28;20049;-71
2021/07/27 02:42:26;;;;;;;12.45;5.90;;;;;;;17.29;84.74;100246.13;20822578;28;20099;-71
2021/07/27 02:52:31;;;;;;;9.52;6.40;;;;;;;17.19;84.84;100249.19;20824834;28;20306;-71
2021/07/27 03:02:43;;;;;;;9.60;6.45;;;;;;;17.21;85.05;100246.50;20824107;28;20045;-71
2021/07/27 03:12:45;;;;;;;10.52;6.43;;;;;;;17.21;85.21;100250.94;20824053;28;20111;-71
2021/07/27 03:22:49;;;;;;;11.63;7.45;;;;;;;17.23;85.03;100246.41;20822559;28;20096;-71
2021/07/27 03:32:51;;;;;;;12.23;6.50;;;;;;;17.23;85.39;100254.34;20821628;28;20131;-70
2021/07/27 03:42:53;;;;;;;11.23;6.38;;;;;;;17.19;85.37;100259.78;20821696;28;20045;-71
2021/07/27 03:52:55;;;;;;;11.73;6.43;;;;;;;17.21;84.88;100265.00;20821151;28;20057;-70
2021/07/27 04:02:56;;;;;;;11.38;6.43;;;;;;;17.24;84.87;100258.72;20819703;28;20045;-71
2021/07/27 04:13:01;;;;;;;9.48;6.22;;;;;;;17.31;84.30;100261.03;20820071;28;20041;-72
2021/07/27 04:23:03;;;;;;;10.27;6.43;;;;;;;17.50;82.84;100258.38;20818846;28;20099;-71
2021/07/27 04:33:05;;;;;;;8.82;5.40;;;;;;;17.49;82.76;100253.16;20821969;28;20045;-71
2021/07/27 04:43:06;;;;;;;8.48;5.70;;;;;;;17.61;82.23;100258.72;20836012;28;20042;-70
2021/07/27 04:53:09;;;;;;;11.05;5.55;;;;;;;18.09;80.15;100257.34;20835200;28;20045;-70
2021/07/27 05:03:12;;;;;;;9.55;5.40;;;;;;;18.22;79.66;100251.44;20834301;28;20053;-70
2021/07/27 05:13:13;;;;;;;11.57;6.00;;;;;;;18.36;79.30;100227.75;20833985;28;20064;-71
2021/07/27 05:23:15;;;;;;;11.48;5.72;;;;;;;18.73;77.91;100231.19;20838625;28;20530;-71
2021/07/27 05:33:16;;;;;;;8.30;5.20;;;;;;;19.31;75.91;100228.97;20832319;28;20049;-71
2021/07/27 05:43:18;;;;;;;11.07;6.18;;;;;;;19.76;73.71;100208.78;20830745;28;20111;-72
2021/07/27 05:53:20;;;;;;;8.25;5.00;;;;;;;19.68;73.65;100197.72;20830931;28;20148;-71
2021/07/27 06:03:22;;;;;;;9.90;5.55;;;;;;;19.47;74.52;100197.09;20829713;28;20084;-72
2021/07/27 06:13:23;;;;;;;7.93;4.90;;;;;;;19.99;72.78;100218.94;20829838;28;20041;-71
2021/07/27 06:23:26;;;;;;;8.88;5.07;;;;;;;19.80;73.88;100223.59;20828854;28;20052;-71
2021/07/27 06:33:27;;;;;;;13.07;5.75;;;;;;;19.88;72.73;100224.03;20828450;28;20057;-71
2021/07/27 06:43:29;;;;;;;7.28;4.90;;;;;;;20.36;70.54;100223.91;20827231;28;20488;-71
2021/07/27 06:53:31;;;;;;;9.23;4.80;;;;;;;21.04;67.61;100215.41;20826577;28;20061;-72
2021/07/27 07:03:33;;;;;;;9.15;5.10;;;;;;;21.55;65.64;100224.59;20821181;28;20092;-72
2021/07/27 07:13:35;;;;;;;9.38;5.13;;;;;;;21.50;65.10;100242.69;20778255;28;20058;-72
2021/07/27 07:23:37;;;;;;;9.10;5.13;;;;;;;21.60;64.83;100237.63;20779863;28;20051;-72
2021/07/27 07:33:39;;;;;;;8.40;5.25;;;;;;;21.89;63.85;100244.59;20821498;28;20095;-72
2021/07/27 07:43:40;;;;;;;8.30;5.15;;;;;;;22.36;62.92;100261.13;20821660;28;20410;-72
2021/07/27 07:53:43;;;;;;;7.65;4.55;;;;;;;22.26;62.20;100250.22;20821620;28;20046;-72
2021/07/27 08:03:44;;;;;;;8.07;5.15;;;;;;;23.20;59.92;100234.84;20820741;28;20118;-71
2021/07/27 08:13:46;;;;;;;7.18;4.50;;;;;;;23.12;58.56;100233.69;20786965;28;20054;-72
2021/07/27 08:23:48;;;;;;;8.75;4.93;;;;;;;23.16;60.84;100232.50;20738395;28;20111;-72
2021/07/27 08:33:53;;;;;;;7.45;4.50;;;;;;;23.42;60.75;100234.16;20736897;28;20058;-72
2021/07/27 08:43:55;;;;;;;9.18;4.68;;;;;;;23.40;56.94;100232.56;20737318;28;20050;-72
2021/07/27 08:53:58;;;;;;;7.70;4.50;;;;;;;23.84;57.52;100228.50;20741731;28;20045;-72
2021/07/27 09:03:59;;;;;;;6.57;4.63;;;;;;;25.04;54.61;100231.84;20737721;28;20112;-72
2021/07/27 09:14:01;;;;;;;7.22;4.93;;;;;;;25.61;52.67;100227.34;20770333;28;20049;-72
2021/07/27 09:24:03;;;;;;;9.10;5.72;;;;;;;25.12;52.14;100232.13;20826714;28;20057;-72
2021/07/27 09:34:19;;;;;;;8.27;4.97;;;;;;;25.13;51.02;100235.66;20831581;28;20063;-72
2021/07/27 09:44:21;;;;;;;8.00;5.20;;;;;;;25.42;50.18;100239.53;20833022;28;20050;-72
2021/07/27 09:54:25;;;;;;;8.38;5.72;;;;;;;25.38;49.67;100221.16;20802812;28;20045;-72
2021/07/27 10:04:36;;;;;;;12.17;6.40;;;;;;;25.26;50.78;100231.03;20830820;28;20046;-72
2021/07/27 10:14:44;;;;;;;10.65;5.65;;;;;;;24.98;52.40;100229.66;20772171;28;20057;-73
2021/07/27 10:24:48;;;;;;;8.45;5.80;;;;;;;25.03;53.35;100230.16;20745916;28;20045;-72
2021/07/27 10:34:52;;;;;;;9.15;6.15;;;;;;;25.01;53.16;100240.16;20744006;28;20064;-72
2021/07/27 10:44:54;;;;;;;9.25;5.95;;;;;;;25.03;53.18;100220.28;20744462;28;20046;-72
2021/07/27 10:54:58;;;;;;;7.78;5.80;;;;;;;24.84;53.50;100225.38;20752562;28;20053;-72
2021/07/27 11:04:59;;;;;;;11.40;6.00;;;;;;;25.20;49.72;100208.28;20823790;28;20041;-72
2021/07/27 11:15:09;;;;;;;9.48;5.80;;;;;;;24.95;51.97;100203.94;20780552;28;20491;-71
2021/07/27 11:25:12;;;;;;;9.35;6.40;;;;;;;24.91;52.39;100185.56;20741376;28;20080;-72
2021/07/27 11:35:22;;;;;;;9.63;6.10;;;;;;;25.47;49.70;100182.88;20740343;28;20104;-72
2021/07/27 11:45:24;;;;;;;10.27;6.38;;;;;;;25.91;48.52;100149.75;20740044;28;20610;-73
2021/07/27 11:55:31;;;;;;;8.10;6.28;;;;;;;26.16;48.82;100175.38;20740036;28;20459;-73
2021/07/27 12:05:33;;;;;;;9.77;6.25;;;;;;;26.55;47.08;100148.81;20736273;28;20080;-72
2021/07/27 12:15:35;;;;;;;10.85;6.43;;;;;;;26.19;48.51;100142.91;20784290;28;20099;-72
2021/07/27 12:25:37;;;;;;;8.32;5.90;;;;;;;26.56;49.26;100124.53;20801917;28;20103;-71
2021/07/27 12:35:39;;;;;;;7.60;5.10;;;;;;;27.21;46.20;100118.84;20817088;28;20087;-71
2021/07/27 12:45:43;;;;;;;8.35;5.90;;;;;;;26.55;46.37;100106.72;20818671;28;20050;-71
2021/07/27 12:55:45;;;;;;;9.98;5.78;;;;;;;26.85;44.57;100097.78;20821837;28;20050;-71
2021/07/27 13:05:47;;;;;;;7.10;4.95;;;;;;;27.34;44.85;100104.16;20833141;28;20045;-71
2021/07/27 13:15:49;;;;;;;10.90;5.38;;;;;;;27.27;44.53;100097.66;20782109;28;20046;-71
2021/07/27 13:25:50;;;;;;;8.82;5.57;;;;;;;26.98;45.92;100088.66;20751097;28;20058;-71
2021/07/27 13:35:52;;;;;;;9.95;6.18;;;;;;;27.08;45.60;100086.88;20747616;28;20054;-71
2021/07/27 13:45:56;;;;;;;8.02;5.40;;;;;;;26.14;47.24;100075.34;20748027;28;20492;-70
2021/07/27 13:55:58;;;;;;;8.75;5.57;;;;;;;27.00;44.95;100073.22;20748345;28;20115;-70
2021/07/27 14:06:01;;;;;;;7.72;5.22;;;;;;;27.40;43.65;100048.97;20744903;28;20655;-70
2021/07/27 14:16:04;;;;;;;9.20;5.45;;;;;;;27.40;42.56;100042.75;20798864;28;20417;-71
2021/07/27 14:26:06;;;;;;;8.30;5.47;;;;;;;27.16;42.96;100040.47;20829445;28;20482;-71
2021/07/27 14:36:09;;;;;;;10.40;5.57;;;;;;;26.95;43.96;100037.84;20888233;28;20060;-71
2021/07/27 14:46:11;;;;;;;7.55;5.63;;;;;;;26.21;45.47;100032.75;20916532;28;20049;-71
2021/07/27 14:56:13;;;;;;;7.43;5.60;;;;;;;25.92;47.43;100037.91;20921099;28;20482;-71
2021/07/27 15:06:15;;;;;;;10.20;5.82;;;;;;;26.08;46.47;100027.59;20907599;28;20037;-71
2021/07/27 15:16:17;;;;;;;12.23;6.05;;;;;;;25.88;47.31;100020.41;20911629;28;20102;-71
2021/07/27 15:26:20;;;;;;;;;;;;;;;25.59;47.04;100013.81;20906853;28;20334;-72
2021/07/27 15:36:22;;;;;;;8.50;5.97;;;;;;;25.44;48.20;99995.47;20905339;28;19921;-71
2021/07/27 15:46:24;;;;;;;10.48;6.55;;;;;;;25.54;47.69;99991.06;20904217;28;20103;-71
2021/07/27 15:56:26;;;;;;;9.52;6.50;;;;;;;25.35;49.71;99975.69;20904471;28;20056;-71
2021/07/27 16:06:28;;;;;;;11.88;6.10;;;;;;;25.42;49.49;99968.81;20903734;28;20041;-71
2021/07/27 16:16:29;;;;;;;8.20;6.40;;;;;;;25.39;49.43;99962.84;20904130;28;20045;-71
2021/07/27 16:26:35;;;;;;;9.52;6.32;;;;;;;25.18;48.90;99952.13;20902925;28;20073;-71
2021/07/27 16:36:37;;;;;;;9.82;6.57;;;;;;;25.26;50.62;99939.78;20902082;28;20117;-71
2021/07/27 16:46:38;;;;;;;9.48;6.78;;;;;;;25.17;49.74;99924.50;20902914;28;20045;-71
2021/07/27 16:56:41;;;;;;;10.23;6.80;;;;;;;25.00;52.69;99938.41;20902483;28;20045;-71
2021/07/27 17:06:43;;;;;;;11.48;8.35;;;;;;;24.83;52.70;99921.91;20900683;28;20414;-71
2021/07/27 17:16:45;;;;;;;13.60;7.03;;;;;;;24.43;53.27;99934.16;20843225;28;20099;-71
2021/07/27 17:26:47;;;;;;;11.07;6.30;;;;;;;24.29;52.58;99937.91;20818615;28;20045;-72
2021/07/27 17:36:49;;;;;;;9.38;6.15;;;;;;;24.18;53.41;99927.22;20817598;28;20541;-71
2021/07/27 17:46:51;;;;;;;9.48;6.40;;;;;;;24.07;54.55;99928.09;20829617;28;20445;-71
2021/07/27 17:56:54;;;;;;;10.20;6.30;;;;;;;24.14;54.61;99929.28;20832091;28;20137;-71
2021/07/27 18:06:55;;;;;;;10.20;6.50;;;;;;;23.89;55.94;99937.56;20828395;28;20046;-71
2021/07/27 18:16:57;;;;;;;10.05;6.47;;;;;;;23.55;57.13;99938.31;20828444;28;20057;-71
2021/07/27 18:26:59;;;;;;;9.07;6.55;;;;;;;23.46;59.93;99933.69;20906273;28;20045;-71
2021/07/27 18:37:01;;;;;;;13.18;7.40;;;;;;;23.36;60.66;99943.38;20912022;28;20491;-71
2021/07/27 18:47:03;;;;;;;11.35;7.00;;;;;;;23.11;61.74;99981.78;20909677;28;20099;-71
2021/07/27 18:57:05;;;;;;;11.70;6.72;;;;;;;23.06;60.45;99962.56;20910199;28;20049;-71
2021/07/27 19:07:06;;;;;;;13.98;7.28;;;;;;;23.07;64.28;99990.97;20901413;28;20045;-71
2021/07/27 19:17:11;;;;;;;10.15;7.07;;;;;;;23.01;67.65;99996.78;20811015;28;20103;-70
2021/07/27 19:27:13;;;;;;;12.95;8.30;;;;;;;22.79;72.19;100035.69;20754672;28;20092;-69
2021/07/27 19:37:15;;;;;;;13.98;9.63;;;;;;;22.38;75.49;100029.81;20778416;28;20569;-70
2021/07/27 19:47:24;;;;;;;13.98;9.23;;;;;;;22.11;72.19;100027.22;20774857;28;20038;-70
2021/07/27 19:57:26;;;;;;;12.77;7.85;;;;;;;;;;20786853;28;20081;-70
2021/07/27 20:07:28;;;;;;;12.57;8.80;;;;;;;21.20;77.05;100054.59;20777035;28;20049;-69
2021/07/27 20:17:31;;;;;;;15.45;10.38;;;;;;;20.86;80.00;100084.34;20780501;28;20049;-69
2021/07/27 20:27:33;;;;;;;14.43;9.75;;;;;;;20.49;79.14;100130.03;20819628;28;20049;-69
2021/07/27 20:37:35;;;;;;;13.65;9.18;;;;;;;20.35;77.75;100147.75;20833734;22;20132;-68
2021/07/27 20:47:36;;;;;;;16.58;10.73;;;;;;;19.75;83.44;100179.66;20820023;28;20045;-70
2021/07/27 20:57:38;;;;;;;17.02;10.52;;;;;;;19.56;83.57;100185.13;20819656;28;20072;-68
2021/07/27 21:07:40;;;;;;;18.30;11.95;;;;;;;19.27;86.11;100168.16;20819777;28;20091;-69
2021/07/27 21:17:42;;;;;;;14.55;9.98;;;;;;;19.12;86.41;100165.41;20826057;28;20049;-69
2021/07/27 21:27:43;;;;;;;13.05;9.98;;;;;;;19.07;85.70;100180.72;20834934;28;20399;-69
2021/07/27 21:37:45;;;;;;;15.57;10.15;;;;;;;19.22;87.57;100171.91;20834069;28;20041;-69
2021/07/27 21:47:47;;;;;;;13.48;10.23;;;;;;;19.30;86.80;100186.56;20833234;28;20545;-69
2021/07/27 21:57:48;;;;;;;15.65;11.07;;;;;;;19.50;86.18;100196.94;20833590;28;20042;-69
2021/07/27 22:07:50;;;;;;;14.52;10.35;;;;;;;19.53;86.10;100212.69;20855278;28;20052;-70
2021/07/27 22:17:52;;;;;;;17.30;11.98;;;;;;;19.58;86.62;100215.09;20911674;28;20442;-69
2021/07/27 22:27:54;;;;;;;16.65;11.93;;;;;;;19.58;87.28;100215.09;20908166;28;20041;-69
2021/07/27 22:37:56;;;;;;;18.65;11.70;;;;;;;19.53;86.56;100206.53;20907539;28;20048;-69
2021/07/27 22:47:57;;;;;;;16.58;10.73;;;;;;;19.54;87.16;100211.75;20909573;28;20049;-70
2021/07/27 22:57:59;;;;;;;14.55;10.80;;;;;;;19.56;86.02;100201.91;20909150;28;20045;-68
2021/07/27 23:08:01;;;;;;;14.45;9.18;;;;;;;19.37;85.09;100198.56;20907229;28;20461;-69
2021/07/27 23:18:03;;;;;;;12.35;8.68;;;;;;;19.15;83.82;100196.22;20906867;28;20414;-70
2021/07/27 23:28:06;;;;;;;12.18;8.35;;;;;;;19.02;84.56;100179.22;20905224;28;20044;-69
2021/07/27 23:38:08;;;;;;;12.70;8.60;;;;;;;18.97;85.01;100171.53;20904534;28;20041;-70
2021/07/27 23:48:10;;;;;;;11.27;8.30;;;;;;;18.85;85.06;100194.28;20904135;28;20560;-69
2021/07/27 23:58:11;;;;;;;12.90;8.38;;;;;;;18.78;85.65;100192.03;20903339;28;20418;-69
